createdAt,value
2019-03-13T00:00:25.393Z,1016.1
2019-03-13T00:01:05.984Z,1016.11
2019-03-13T00:01:46.582Z,1016.08
2019-03-13T00:02:27.217Z,1016.07
2019-03-13T00:03:07.849Z,1016.09
2019-03-13T00:03:48.461Z,1016.06
2019-03-13T00:04:29.127Z,1016.04
2019-03-13T00:05:09.782Z,1016.1
2019-03-13T00:05:50.341Z,1016.05
2019-03-13T00:06:30.967Z,1016.01
2019-03-13T00:07:11.581Z,1016.02
2019-03-13T00:07:52.234Z,1016
2019-03-13T00:08:32.827Z,1016.01
2019-03-13T00:09:13.417Z,1016.03
2019-03-13T00:09:54.017Z,1015.99
2019-03-13T00:10:34.614Z,1016.01
2019-03-13T00:11:15.229Z,1015.97
2019-03-13T00:11:55.961Z,1016
2019-03-13T00:12:36.624Z,1016.03
2019-03-13T00:13:17.242Z,1015.98
2019-03-13T00:13:57.833Z,1016.02
2019-03-13T00:14:38.439Z,1015.97
2019-03-13T00:15:19.059Z,1015.97
2019-03-13T00:16:01.622Z,1015.99
2019-03-13T00:16:42.231Z,1016
2019-03-13T00:17:23.018Z,1016.02
2019-03-13T00:18:03.641Z,1016
2019-03-13T00:18:44.225Z,1015.97
2019-03-13T00:19:24.832Z,1015.99
2019-03-13T00:20:05.450Z,1015.99
2019-03-13T00:20:46.091Z,1015.99
2019-03-13T00:21:26.687Z,1015.99
2019-03-13T00:22:07.300Z,1015.97
2019-03-13T00:22:47.891Z,1015.99
2019-03-13T00:23:28.493Z,1016.01
2019-03-13T00:24:09.084Z,1015.98
2019-03-13T00:24:49.972Z,1015.95
2019-03-13T00:25:30.469Z,1015.98
2019-03-13T00:26:11.080Z,1015.95
2019-03-13T00:26:51.708Z,1015.95
2019-03-13T00:27:32.308Z,1015.94
2019-03-13T00:28:12.930Z,1015.94
2019-03-13T00:28:53.534Z,1015.9
2019-03-13T00:29:34.133Z,1015.88
2019-03-13T00:30:16.285Z,1015.88
2019-03-13T00:30:56.879Z,1015.9
2019-03-13T00:31:37.469Z,1015.88
2019-03-13T00:32:18.130Z,1015.88
2019-03-13T00:32:59.942Z,1015.92
2019-03-13T00:33:40.734Z,1015.91
2019-03-13T00:34:21.342Z,1015.96
2019-03-13T00:35:01.998Z,1015.92
2019-03-13T00:35:42.591Z,1015.9
2019-03-13T00:36:23.219Z,1015.92
2019-03-13T00:37:03.823Z,1015.94
2019-03-13T00:37:44.425Z,1015.94
2019-03-13T00:38:25.008Z,1015.92
2019-03-13T00:39:05.595Z,1015.93
2019-03-13T00:39:46.211Z,1015.93
2019-03-13T00:40:26.798Z,1015.93
2019-03-13T00:41:07.388Z,1015.93
2019-03-13T00:41:47.979Z,1015.94
2019-03-13T00:42:28.635Z,1015.95
2019-03-13T00:43:10.207Z,1015.94
2019-03-13T00:43:51.357Z,1015.95
2019-03-13T00:44:32.070Z,1015.95
2019-03-13T00:45:12.672Z,1015.91
2019-03-13T00:45:53.279Z,1015.94
2019-03-13T00:46:33.889Z,1015.9
2019-03-13T00:47:14.509Z,1015.9
2019-03-13T00:47:55.091Z,1015.94
2019-03-13T00:48:35.754Z,1016
2019-03-13T00:49:16.532Z,1015.95
2019-03-13T00:49:57.424Z,1015.96
2019-03-13T00:50:38.028Z,1015.95
2019-03-13T00:51:18.646Z,1015.92
2019-03-13T00:51:59.262Z,1015.98
2019-03-13T00:52:39.897Z,1015.95
2019-03-13T00:53:20.505Z,1015.99
2019-03-13T00:54:01.092Z,1015.95
2019-03-13T00:54:41.753Z,1015.97
2019-03-13T00:55:22.347Z,1015.98
2019-03-13T00:56:02.936Z,1015.96
2019-03-13T00:56:43.545Z,1015.98
2019-03-13T00:57:24.142Z,1016.01
2019-03-13T00:58:05.423Z,1015.96
2019-03-13T00:58:46.026Z,1015.94
2019-03-13T00:59:26.657Z,1015.96
2019-03-13T01:00:07.257Z,1015.98
2019-03-13T01:00:47.858Z,1015.99
2019-03-13T01:01:28.516Z,1015.99
2019-03-13T01:02:09.123Z,1015.99
2019-03-13T01:02:49.706Z,1015.96
2019-03-13T01:03:30.292Z,1015.99
2019-03-13T01:04:10.923Z,1015.99
2019-03-13T01:04:51.576Z,1015.98
2019-03-13T01:05:32.188Z,1016.01
2019-03-13T01:06:12.766Z,1015.99
2019-03-13T01:06:53.401Z,1016.02
2019-03-13T01:07:33.978Z,1016.02
2019-03-13T01:08:14.570Z,1016.03
2019-03-13T01:08:55.172Z,1016
2019-03-13T01:09:35.785Z,1016.04
2019-03-13T01:10:16.375Z,1015.98
2019-03-13T01:10:57.042Z,1016
2019-03-13T01:11:37.626Z,1015.94
2019-03-13T01:12:18.234Z,1015.95
2019-03-13T01:12:58.832Z,1015.95
2019-03-13T01:13:39.436Z,1015.92
2019-03-13T01:14:20.048Z,1015.98
2019-03-13T01:15:00.645Z,1015.97
2019-03-13T01:15:41.223Z,1015.95
2019-03-13T01:16:21.824Z,1015.93
2019-03-13T01:17:02.424Z,1015.97
2019-03-13T01:17:43.018Z,1015.96
2019-03-13T01:18:23.609Z,1016.03
2019-03-13T01:19:04.240Z,1016.02
2019-03-13T01:19:44.833Z,1015.98
2019-03-13T01:20:25.442Z,1016
2019-03-13T01:21:06.146Z,1015.97
2019-03-13T01:21:46.742Z,1015.97
2019-03-13T01:22:27.388Z,1016
2019-03-13T01:23:07.974Z,1015.98
2019-03-13T01:23:48.575Z,1015.99
2019-03-13T01:24:29.182Z,1016.01
2019-03-13T01:25:09.776Z,1016.04
2019-03-13T01:25:50.367Z,1016.04
2019-03-13T01:26:30.971Z,1016.04
2019-03-13T01:27:11.586Z,1016.02
2019-03-13T01:27:52.178Z,1016.03
2019-03-13T01:28:32.770Z,1016
2019-03-13T01:29:13.358Z,1016.01
2019-03-13T01:29:53.974Z,1016
2019-03-13T01:30:34.585Z,1015.96
2019-03-13T01:31:15.175Z,1015.99
2019-03-13T01:31:55.778Z,1016.02
2019-03-13T01:32:36.386Z,1015.98
2019-03-13T01:33:16.984Z,1015.96
2019-03-13T01:33:57.563Z,1015.99
2019-03-13T01:34:38.156Z,1016
2019-03-13T01:35:18.747Z,1015.95
2019-03-13T01:35:59.348Z,1015.92
2019-03-13T01:36:40.030Z,1015.95
2019-03-13T01:37:20.580Z,1016
2019-03-13T01:38:01.202Z,1015.98
2019-03-13T01:38:41.826Z,1015.92
2019-03-13T01:39:22.462Z,1015.94
2019-03-13T01:40:03.075Z,1015.93
2019-03-13T01:40:43.674Z,1015.91
2019-03-13T01:41:24.264Z,1015.95
2019-03-13T01:42:04.879Z,1015.95
2019-03-13T01:42:45.471Z,1015.92
2019-03-13T01:43:26.068Z,1015.94
2019-03-13T01:44:06.678Z,1015.9
2019-03-13T01:44:47.288Z,1015.93
2019-03-13T01:45:27.923Z,1015.95
2019-03-13T01:46:08.558Z,1015.97
2019-03-13T01:46:49.180Z,1016.01
2019-03-13T01:47:29.776Z,1015.99
2019-03-13T01:48:10.382Z,1016.05
2019-03-13T01:48:50.998Z,1016.05
2019-03-13T01:49:31.597Z,1016.05
2019-03-13T01:50:12.207Z,1016.04
2019-03-13T01:50:52.807Z,1016.01
2019-03-13T01:51:33.407Z,1016.07
2019-03-13T01:52:14.006Z,1016.02
2019-03-13T01:52:54.584Z,1016.02
2019-03-13T01:53:35.176Z,1016.03
2019-03-13T01:54:15.770Z,1015.98
2019-03-13T01:54:56.369Z,1016.01
2019-03-13T01:55:37.010Z,1015.98
2019-03-13T01:56:17.552Z,1016.04
2019-03-13T01:56:58.162Z,1016.03
2019-03-13T01:57:38.744Z,1015.99
2019-03-13T01:58:19.392Z,1015.97
2019-03-13T01:58:59.982Z,1015.9
2019-03-13T01:59:40.574Z,1015.86
2019-03-13T02:00:21.176Z,1015.87
2019-03-13T02:01:01.770Z,1015.92
2019-03-13T02:01:42.348Z,1015.96
2019-03-13T02:02:22.935Z,1015.97
2019-03-13T02:03:03.529Z,1015.96
2019-03-13T02:03:44.126Z,1015.94
2019-03-13T02:04:24.726Z,1015.92
2019-03-13T02:05:05.318Z,1015.91
2019-03-13T02:05:45.908Z,1015.95
2019-03-13T02:06:26.498Z,1016.01
2019-03-13T02:07:07.146Z,1015.99
2019-03-13T02:07:47.705Z,1015.96
2019-03-13T02:08:28.315Z,1015.97
2019-03-13T02:09:08.905Z,1015.97
2019-03-13T02:09:49.496Z,1015.91
2019-03-13T02:10:30.133Z,1015.91
2019-03-13T02:11:10.688Z,1015.92
2019-03-13T02:11:51.284Z,1015.95
2019-03-13T02:12:31.881Z,1015.92
2019-03-13T02:13:12.466Z,1015.94
2019-03-13T02:13:53.090Z,1015.94
2019-03-13T02:14:33.688Z,1015.96
2019-03-13T02:15:14.296Z,1015.95
2019-03-13T02:15:54.909Z,1015.97
2019-03-13T02:16:35.494Z,1015.93
2019-03-13T02:17:16.113Z,1015.99
2019-03-13T02:17:56.690Z,1015.97
2019-03-13T02:18:37.292Z,1015.98
2019-03-13T02:19:17.902Z,1015.97
2019-03-13T02:19:58.488Z,1015.92
2019-03-13T02:20:39.082Z,1015.92
2019-03-13T02:21:19.692Z,1015.9
2019-03-13T02:22:00.284Z,1015.94
2019-03-13T02:22:40.901Z,1015.89
2019-03-13T02:23:21.487Z,1015.92
2019-03-13T02:24:02.082Z,1015.92
2019-03-13T02:24:42.676Z,1015.9
2019-03-13T02:25:23.286Z,1015.92
2019-03-13T02:26:03.876Z,1015.9
2019-03-13T02:26:44.470Z,1015.92
2019-03-13T02:27:25.094Z,1015.91
2019-03-13T02:28:05.686Z,1015.9
2019-03-13T02:28:46.300Z,1015.88
2019-03-13T02:29:26.902Z,1015.91
2019-03-13T02:30:07.510Z,1015.91
2019-03-13T02:30:48.093Z,1015.86
2019-03-13T02:31:28.713Z,1015.88
2019-03-13T02:32:09.304Z,1015.86
2019-03-13T02:32:49.920Z,1015.88
2019-03-13T02:33:30.498Z,1015.82
2019-03-13T02:34:11.086Z,1015.89
2019-03-13T02:34:51.665Z,1015.87
2019-03-13T02:35:32.333Z,1015.85
2019-03-13T02:36:12.840Z,1015.83
2019-03-13T02:36:53.484Z,1015.84
2019-03-13T02:37:34.083Z,1015.84
2019-03-13T02:38:14.704Z,1015.84
2019-03-13T02:38:55.289Z,1015.86
2019-03-13T02:39:35.892Z,1015.83
2019-03-13T02:40:16.486Z,1015.84
2019-03-13T02:40:57.142Z,1015.86
2019-03-13T02:41:37.711Z,1015.92
2019-03-13T02:42:20.186Z,1015.87
2019-03-13T02:43:00.789Z,1015.86
2019-03-13T02:43:41.407Z,1015.82
2019-03-13T02:44:22.087Z,1015.82
2019-03-13T02:45:02.650Z,1015.77
2019-03-13T02:45:43.247Z,1015.83
2019-03-13T02:46:23.853Z,1015.83
2019-03-13T02:47:04.433Z,1015.81
2019-03-13T02:47:45.021Z,1015.82
2019-03-13T02:48:25.626Z,1015.84
2019-03-13T02:49:06.205Z,1015.82
2019-03-13T02:49:46.811Z,1015.81
2019-03-13T02:50:27.419Z,1015.82
2019-03-13T02:51:08.027Z,1015.85
2019-03-13T02:51:48.626Z,1015.81
2019-03-13T02:52:29.217Z,1015.93
2019-03-13T02:53:09.812Z,1015.95
2019-03-13T02:53:50.410Z,1015.9
2019-03-13T02:54:31.010Z,1015.91
2019-03-13T02:55:11.591Z,1015.93
2019-03-13T02:55:52.186Z,1015.94
2019-03-13T02:56:32.793Z,1015.96
2019-03-13T02:57:13.396Z,1015.92
2019-03-13T02:57:53.984Z,1015.91
2019-03-13T02:58:34.581Z,1015.9
2019-03-13T02:59:15.183Z,1015.92
2019-03-13T02:59:55.779Z,1015.91
2019-03-13T03:00:37.722Z,1015.91
2019-03-13T03:01:16.967Z,1015.9
2019-03-13T03:01:57.568Z,1015.88
2019-03-13T03:02:38.158Z,1015.89
2019-03-13T03:03:18.756Z,1015.91
2019-03-13T03:03:59.350Z,1015.96
2019-03-13T03:04:39.950Z,1015.91
2019-03-13T03:05:20.537Z,1015.88
2019-03-13T03:06:01.131Z,1015.87
2019-03-13T03:06:41.715Z,1015.9
2019-03-13T03:07:22.313Z,1015.85
2019-03-13T03:08:02.972Z,1015.85
2019-03-13T03:08:43.577Z,1015.84
2019-03-13T03:09:24.189Z,1015.84
2019-03-13T03:10:04.807Z,1015.85
2019-03-13T03:10:45.395Z,1015.82
2019-03-13T03:11:25.984Z,1015.82
2019-03-13T03:12:06.573Z,1015.82
2019-03-13T03:12:47.171Z,1015.78
2019-03-13T03:13:27.752Z,1015.8
2019-03-13T03:14:08.361Z,1015.78
2019-03-13T03:14:48.978Z,1015.79
2019-03-13T03:15:29.635Z,1015.77
2019-03-13T03:16:10.239Z,1015.75
2019-03-13T03:16:50.833Z,1015.79
2019-03-13T03:17:31.436Z,1015.77
2019-03-13T03:18:12.025Z,1015.82
2019-03-13T03:18:52.641Z,1015.79
2019-03-13T03:19:33.223Z,1015.78
2019-03-13T03:20:13.810Z,1015.79
2019-03-13T03:20:54.420Z,1015.78
2019-03-13T03:21:35.024Z,1015.81
2019-03-13T03:22:15.614Z,1015.82
2019-03-13T03:22:56.223Z,1015.81
2019-03-13T03:23:38.513Z,1015.86
2019-03-13T03:24:19.118Z,1015.9
2019-03-13T03:24:59.704Z,1015.9
2019-03-13T03:25:40.309Z,1015.94
2019-03-13T03:26:20.912Z,1015.89
2019-03-13T03:27:01.516Z,1015.9
2019-03-13T03:27:42.115Z,1015.84
2019-03-13T03:28:22.731Z,1015.84
2019-03-13T03:29:03.324Z,1015.83
2019-03-13T03:29:43.913Z,1015.82
2019-03-13T03:30:24.507Z,1015.82
2019-03-13T03:31:05.097Z,1015.79
2019-03-13T03:31:45.697Z,1015.83
2019-03-13T03:32:26.291Z,1015.84
2019-03-13T03:33:06.872Z,1015.88
2019-03-13T03:33:47.461Z,1015.91
2019-03-13T03:34:28.086Z,1015.88
2019-03-13T03:35:08.699Z,1015.89
2019-03-13T03:35:49.298Z,1015.91
2019-03-13T03:36:29.899Z,1015.86
2019-03-13T03:37:10.493Z,1015.88
2019-03-13T03:37:51.102Z,1015.88
2019-03-13T03:38:31.700Z,1015.88
2019-03-13T03:39:12.293Z,1015.87
2019-03-13T03:39:52.893Z,1015.88
2019-03-13T03:40:33.483Z,1015.86
2019-03-13T03:41:14.078Z,1015.88
2019-03-13T03:41:54.682Z,1015.84
2019-03-13T03:42:35.268Z,1015.87
2019-03-13T03:43:15.869Z,1015.81
2019-03-13T03:43:56.457Z,1015.82
2019-03-13T03:44:37.048Z,1015.85
2019-03-13T03:45:17.638Z,1015.84
2019-03-13T03:45:58.259Z,1015.88
2019-03-13T03:46:38.825Z,1015.85
2019-03-13T03:47:19.430Z,1015.83
2019-03-13T03:48:00.039Z,1015.85
2019-03-13T03:48:40.645Z,1015.86
2019-03-13T03:49:21.260Z,1015.88
2019-03-13T03:50:01.865Z,1015.86
2019-03-13T03:50:42.468Z,1015.9
2019-03-13T03:51:23.051Z,1015.85
2019-03-13T03:52:03.654Z,1015.87
2019-03-13T03:52:44.261Z,1015.88
2019-03-13T03:53:24.848Z,1015.86
2019-03-13T03:54:05.438Z,1015.82
2019-03-13T03:54:46.035Z,1015.8
2019-03-13T03:55:26.647Z,1015.83
2019-03-13T03:56:07.219Z,1015.82
2019-03-13T03:56:47.810Z,1015.79
2019-03-13T03:57:28.411Z,1015.8
2019-03-13T03:58:09.001Z,1015.81
2019-03-13T03:58:49.583Z,1015.82
2019-03-13T03:59:30.182Z,1015.82
2019-03-13T04:00:10.787Z,1015.83
2019-03-13T04:00:51.367Z,1015.86
2019-03-13T04:01:31.962Z,1015.84
2019-03-13T04:02:12.545Z,1015.84
2019-03-13T04:02:53.156Z,1015.86
2019-03-13T04:03:33.752Z,1015.85
2019-03-13T04:04:14.351Z,1015.91
2019-03-13T04:04:54.933Z,1015.91
2019-03-13T04:05:35.533Z,1015.92
2019-03-13T04:06:16.137Z,1015.93
2019-03-13T04:06:56.745Z,1015.93
2019-03-13T04:07:37.375Z,1015.89
2019-03-13T04:08:17.973Z,1015.92
2019-03-13T04:08:58.603Z,1015.93
2019-03-13T04:09:39.197Z,1015.94
2019-03-13T04:10:19.798Z,1016
2019-03-13T04:11:00.377Z,1016.02
2019-03-13T04:11:40.973Z,1015.99
2019-03-13T04:12:21.553Z,1016.01
2019-03-13T04:13:02.165Z,1016
2019-03-13T04:13:44.588Z,1016.06
2019-03-13T04:14:23.364Z,1016.05
2019-03-13T04:15:03.962Z,1016.05
2019-03-13T04:15:44.569Z,1016
2019-03-13T04:16:25.195Z,1016.02
2019-03-13T04:17:05.784Z,1016.04
2019-03-13T04:17:46.411Z,1015.99
2019-03-13T04:18:28.746Z,1016.05
2019-03-13T04:19:09.338Z,1016.04
2019-03-13T04:19:49.917Z,1016.05
2019-03-13T04:20:30.522Z,1016.04
2019-03-13T04:21:11.113Z,1016
2019-03-13T04:21:51.711Z,1015.95
2019-03-13T04:22:32.299Z,1015.93
2019-03-13T04:23:12.903Z,1015.99
2019-03-13T04:23:53.508Z,1016.01
2019-03-13T04:24:34.100Z,1016.05
2019-03-13T04:25:14.695Z,1016.09
2019-03-13T04:25:55.285Z,1016.1
2019-03-13T04:26:35.930Z,1016.09
2019-03-13T04:27:16.571Z,1016.09
2019-03-13T04:27:57.108Z,1016.05
2019-03-13T04:28:37.733Z,1016.05
2019-03-13T04:29:18.297Z,1016.03
2019-03-13T04:29:58.901Z,1016.07
2019-03-13T04:30:39.499Z,1016.09
2019-03-13T04:31:20.104Z,1016.07
2019-03-13T04:32:00.691Z,1016.07
2019-03-13T04:32:41.289Z,1016.09
2019-03-13T04:33:21.972Z,1016.11
2019-03-13T04:34:02.505Z,1016.12
2019-03-13T04:34:43.091Z,1016.1
2019-03-13T04:35:23.681Z,1016.09
2019-03-13T04:36:04.321Z,1016.06
2019-03-13T04:36:44.924Z,1016.07
2019-03-13T04:37:25.524Z,1016.06
2019-03-13T04:38:06.101Z,1016.12
2019-03-13T04:38:46.675Z,1016.15
2019-03-13T04:39:27.289Z,1016.15
2019-03-13T04:40:07.863Z,1016.04
2019-03-13T04:40:48.457Z,1016.02
2019-03-13T04:41:29.074Z,1016.09
2019-03-13T04:42:09.672Z,1016.16
2019-03-13T04:42:50.273Z,1016.2
2019-03-13T04:43:30.875Z,1016.21
2019-03-13T04:44:11.481Z,1016.19
2019-03-13T04:44:52.073Z,1016.21
2019-03-13T04:45:32.667Z,1016.24
2019-03-13T04:46:13.277Z,1016.26
2019-03-13T04:46:53.884Z,1016.28
2019-03-13T04:47:34.481Z,1016.3
2019-03-13T04:48:15.095Z,1016.35
2019-03-13T04:48:55.707Z,1016.38
2019-03-13T04:49:36.316Z,1016.38
2019-03-13T04:50:16.917Z,1016.44
2019-03-13T04:50:57.499Z,1016.34
2019-03-13T04:51:38.103Z,1016.33
2019-03-13T04:52:18.724Z,1016.35
2019-03-13T04:52:59.313Z,1016.34
2019-03-13T04:53:39.896Z,1016.36
2019-03-13T04:54:20.507Z,1016.38
2019-03-13T04:55:01.095Z,1016.4
2019-03-13T04:55:41.699Z,1016.38
2019-03-13T04:56:22.299Z,1016.41
2019-03-13T04:57:02.891Z,1016.47
2019-03-13T04:57:43.475Z,1016.44
2019-03-13T04:58:24.061Z,1016.46
2019-03-13T04:59:04.684Z,1016.4
2019-03-13T04:59:45.271Z,1016.39
2019-03-13T05:00:25.873Z,1016.44
2019-03-13T05:01:06.465Z,1016.44
2019-03-13T05:01:47.067Z,1016.44
2019-03-13T05:02:27.693Z,1016.43
2019-03-13T05:03:08.324Z,1016.43
2019-03-13T05:03:48.935Z,1016.43
2019-03-13T05:04:29.531Z,1016.44
2019-03-13T05:05:10.124Z,1016.51
2019-03-13T05:05:50.739Z,1016.49
2019-03-13T05:06:31.343Z,1016.5
2019-03-13T05:07:11.943Z,1016.55
2019-03-13T05:07:52.531Z,1016.53
2019-03-13T05:08:44.408Z,1016.5
2019-03-13T05:09:13.791Z,1016.49
2019-03-13T05:09:54.363Z,1016.44
2019-03-13T05:10:34.974Z,1016.43
2019-03-13T05:11:15.570Z,1016.46
2019-03-13T05:11:56.167Z,1016.51
2019-03-13T05:12:36.761Z,1016.51
2019-03-13T05:13:17.337Z,1016.51
2019-03-13T05:13:57.935Z,1016.52
2019-03-13T05:14:38.667Z,1016.59
2019-03-13T05:15:19.261Z,1016.54
2019-03-13T05:15:59.848Z,1016.5
2019-03-13T05:16:40.446Z,1016.59
2019-03-13T05:17:21.043Z,1016.61
2019-03-13T05:18:01.643Z,1016.62
2019-03-13T05:18:42.229Z,1016.64
2019-03-13T05:19:22.825Z,1016.7
2019-03-13T05:20:03.437Z,1016.69
2019-03-13T05:20:44.017Z,1016.67
2019-03-13T05:21:24.633Z,1016.63
2019-03-13T05:22:05.233Z,1016.67
2019-03-13T05:22:45.837Z,1016.68
2019-03-13T05:23:26.437Z,1016.7
2019-03-13T05:24:07.037Z,1016.64
2019-03-13T05:24:47.635Z,1016.68
2019-03-13T05:25:28.233Z,1016.75
2019-03-13T05:26:08.848Z,1016.74
2019-03-13T05:26:49.439Z,1016.75
2019-03-13T05:27:30.033Z,1016.74
2019-03-13T05:28:10.620Z,1016.79
2019-03-13T05:28:51.214Z,1016.71
2019-03-13T05:29:31.804Z,1016.7
2019-03-13T05:30:12.409Z,1016.83
2019-03-13T05:30:53.351Z,1016.76
2019-03-13T05:31:33.604Z,1016.77
2019-03-13T05:32:14.199Z,1016.8
2019-03-13T05:32:54.811Z,1016.78
2019-03-13T05:33:35.399Z,1016.83
2019-03-13T05:34:15.990Z,1016.76
2019-03-13T05:34:56.593Z,1016.75
2019-03-13T05:35:37.187Z,1016.75
2019-03-13T05:36:17.773Z,1016.77
2019-03-13T05:36:58.400Z,1016.82
2019-03-13T05:37:39.010Z,1016.82
2019-03-13T05:38:19.597Z,1016.85
2019-03-13T05:39:00.199Z,1016.9
2019-03-13T05:39:40.791Z,1016.87
2019-03-13T05:40:21.396Z,1016.89
2019-03-13T05:41:01.976Z,1016.93
2019-03-13T05:41:42.583Z,1016.91
2019-03-13T05:42:23.181Z,1016.98
2019-03-13T05:43:03.781Z,1016.95
2019-03-13T05:43:44.378Z,1016.96
2019-03-13T05:44:24.965Z,1016.92
2019-03-13T05:45:08.222Z,1016.95
2019-03-13T05:45:46.160Z,1016.98
2019-03-13T05:46:26.758Z,1016.94
2019-03-13T05:47:07.363Z,1016.99
2019-03-13T05:47:47.954Z,1016.94
2019-03-13T05:48:28.547Z,1016.9
2019-03-13T05:49:09.179Z,1016.95
2019-03-13T05:49:49.777Z,1016.91
2019-03-13T05:50:31.531Z,1016.94
2019-03-13T05:51:10.953Z,1016.89
2019-03-13T05:51:51.550Z,1016.93
2019-03-13T05:52:32.172Z,1016.92
2019-03-13T05:53:12.763Z,1016.92
2019-03-13T05:53:53.351Z,1016.91
2019-03-13T05:54:33.931Z,1016.97
2019-03-13T05:55:14.631Z,1016.91
2019-03-13T05:55:55.225Z,1016.91
2019-03-13T05:56:35.824Z,1016.93
2019-03-13T05:57:16.405Z,1016.98
2019-03-13T05:57:56.987Z,1016.94
2019-03-13T05:58:37.577Z,1016.97
2019-03-13T05:59:18.177Z,1017.01
2019-03-13T05:59:58.786Z,1017
2019-03-13T06:00:39.431Z,1017.06
2019-03-13T06:01:20.037Z,1016.99
2019-03-13T06:02:00.643Z,1017.03
2019-03-13T06:02:41.225Z,1017.05
2019-03-13T06:03:21.834Z,1017.04
2019-03-13T06:04:02.441Z,1017.05
2019-03-13T06:04:43.043Z,1017.1
2019-03-13T06:05:23.688Z,1017.07
2019-03-13T06:06:04.335Z,1017.11
2019-03-13T06:06:44.929Z,1017.08
2019-03-13T06:07:25.543Z,1017.15
2019-03-13T06:08:06.156Z,1017.16
2019-03-13T06:08:46.755Z,1017.15
2019-03-13T06:09:27.359Z,1017.16
2019-03-13T06:10:07.953Z,1017.19
2019-03-13T06:10:48.555Z,1017.18
2019-03-13T06:11:29.147Z,1017.2
2019-03-13T06:12:09.755Z,1017.21
2019-03-13T06:12:50.388Z,1017.24
2019-03-13T06:13:31.025Z,1017.2
2019-03-13T06:14:11.617Z,1017.19
2019-03-13T06:14:52.215Z,1017.22
2019-03-13T06:15:32.822Z,1017.26
2019-03-13T06:16:13.443Z,1017.25
2019-03-13T06:16:54.137Z,1017.24
2019-03-13T06:17:34.743Z,1017.29
2019-03-13T06:18:15.324Z,1017.2
2019-03-13T06:18:55.918Z,1017.25
2019-03-13T06:19:36.497Z,1017.31
2019-03-13T06:20:17.103Z,1017.36
2019-03-13T06:20:57.689Z,1017.33
2019-03-13T06:21:38.279Z,1017.31
2019-03-13T06:22:18.869Z,1017.32
2019-03-13T06:22:59.493Z,1017.34
2019-03-13T06:23:40.120Z,1017.37
2019-03-13T06:24:20.707Z,1017.35
2019-03-13T06:25:01.296Z,1017.39
2019-03-13T06:25:41.895Z,1017.38
2019-03-13T06:26:22.493Z,1017.34
2019-03-13T06:27:03.115Z,1017.39
2019-03-13T06:27:46.233Z,1017.35
2019-03-13T06:28:24.303Z,1017.43
2019-03-13T06:29:04.902Z,1017.39
2019-03-13T06:29:45.490Z,1017.4
2019-03-13T06:30:26.087Z,1017.42
2019-03-13T06:31:06.694Z,1017.39
2019-03-13T06:31:47.284Z,1017.41
2019-03-13T06:32:27.874Z,1017.39
2019-03-13T06:33:08.476Z,1017.47
2019-03-13T06:33:49.100Z,1017.42
2019-03-13T06:34:29.681Z,1017.44
2019-03-13T06:35:10.295Z,1017.42
2019-03-13T06:35:50.908Z,1017.43
2019-03-13T06:36:31.503Z,1017.47
2019-03-13T06:37:12.104Z,1017.49
2019-03-13T06:37:52.733Z,1017.49
2019-03-13T06:38:33.343Z,1017.52
2019-03-13T06:39:13.943Z,1017.49
2019-03-13T06:39:54.543Z,1017.55
2019-03-13T06:40:35.128Z,1017.59
2019-03-13T06:41:15.719Z,1017.54
2019-03-13T06:41:56.351Z,1017.57
2019-03-13T06:42:36.951Z,1017.57
2019-03-13T06:43:17.553Z,1017.58
2019-03-13T06:43:58.157Z,1017.59
2019-03-13T06:44:38.761Z,1017.59
2019-03-13T06:45:19.344Z,1017.64
2019-03-13T06:45:59.953Z,1017.68
2019-03-13T06:46:40.579Z,1017.7
2019-03-13T06:47:21.161Z,1017.68
2019-03-13T06:48:01.764Z,1017.71
2019-03-13T06:48:42.368Z,1017.75
2019-03-13T06:49:22.970Z,1017.73
2019-03-13T06:50:03.562Z,1017.73
2019-03-13T06:50:44.174Z,1017.75
2019-03-13T06:51:24.762Z,1017.75
2019-03-13T06:52:05.343Z,1017.77
2019-03-13T06:52:45.937Z,1017.77
2019-03-13T06:53:26.521Z,1017.77
2019-03-13T06:54:07.119Z,1017.8
2019-03-13T06:54:47.737Z,1017.79
2019-03-13T06:55:28.318Z,1017.85
2019-03-13T06:56:08.939Z,1017.84
2019-03-13T06:56:49.541Z,1017.88
2019-03-13T06:57:30.154Z,1017.92
2019-03-13T06:58:10.764Z,1018.01
2019-03-13T06:58:51.380Z,1017.99
2019-03-13T06:59:31.984Z,1018
2019-03-13T07:00:12.590Z,1017.99
2019-03-13T07:00:53.218Z,1018.05
2019-03-13T07:01:33.858Z,1018.08
2019-03-13T07:02:14.662Z,1018.05
2019-03-13T07:02:55.265Z,1018.1
2019-03-13T07:03:35.881Z,1018.08
2019-03-13T07:04:16.525Z,1018.06
2019-03-13T07:04:57.112Z,1018.13
2019-03-13T07:05:37.698Z,1018.1
2019-03-13T07:06:18.272Z,1018.1
2019-03-13T07:06:58.873Z,1018.11
2019-03-13T07:07:39.460Z,1018.16
2019-03-13T07:08:21.454Z,1018.12
2019-03-13T07:09:02.083Z,1018.18
2019-03-13T07:09:42.668Z,1018.22
2019-03-13T07:10:23.299Z,1018.28
2019-03-13T07:11:03.871Z,1018.26
2019-03-13T07:11:44.513Z,1018.37
2019-03-13T07:12:25.179Z,1018.3
2019-03-13T07:13:05.839Z,1018.34
2019-03-13T07:13:46.631Z,1018.31
2019-03-13T07:14:27.238Z,1018.35
2019-03-13T07:15:07.857Z,1018.31
2019-03-13T07:15:48.454Z,1018.32
2019-03-13T07:16:29.058Z,1018.4
2019-03-13T07:17:09.678Z,1018.43
2019-03-13T07:17:50.277Z,1018.37
2019-03-13T07:18:30.878Z,1018.37
2019-03-13T07:19:11.514Z,1018.33
2019-03-13T07:19:52.207Z,1018.37
2019-03-13T07:20:32.858Z,1018.4
2019-03-13T07:21:13.468Z,1018.43
2019-03-13T07:21:54.180Z,1018.39
2019-03-13T07:22:34.886Z,1018.43
2019-03-13T07:23:15.446Z,1018.41
2019-03-13T07:23:56.190Z,1018.35
2019-03-13T07:24:36.820Z,1018.4
2019-03-13T07:25:17.406Z,1018.39
2019-03-13T07:25:58.025Z,1018.42
2019-03-13T07:26:38.614Z,1018.47
2019-03-13T07:27:19.214Z,1018.42
2019-03-13T07:27:59.813Z,1018.47
2019-03-13T07:28:40.418Z,1018.48
2019-03-13T07:29:21.000Z,1018.56
2019-03-13T07:30:01.615Z,1018.59
2019-03-13T07:30:42.204Z,1018.59
2019-03-13T07:31:22.868Z,1018.64
2019-03-13T07:32:03.468Z,1018.68
2019-03-13T07:32:44.078Z,1018.68
2019-03-13T07:33:24.694Z,1018.73
2019-03-13T07:34:05.276Z,1018.66
2019-03-13T07:34:45.868Z,1018.66
2019-03-13T07:35:26.496Z,1018.68
2019-03-13T07:36:07.160Z,1018.67
2019-03-13T07:36:47.755Z,1018.73
2019-03-13T07:37:28.364Z,1018.7
2019-03-13T07:38:10.624Z,1018.75
2019-03-13T07:38:51.222Z,1018.67
2019-03-13T07:39:31.824Z,1018.69
2019-03-13T07:40:12.402Z,1018.72
2019-03-13T07:40:53.017Z,1018.67
2019-03-13T07:41:35.584Z,1018.79
2019-03-13T07:42:14.260Z,1018.8
2019-03-13T07:42:54.878Z,1018.77
2019-03-13T07:43:35.474Z,1018.81
2019-03-13T07:44:16.074Z,1018.82
2019-03-13T07:44:56.654Z,1018.82
2019-03-13T07:45:37.246Z,1018.85
2019-03-13T07:46:17.836Z,1018.88
2019-03-13T07:46:58.446Z,1018.91
2019-03-13T07:47:39.040Z,1018.9
2019-03-13T07:48:19.625Z,1018.91
2019-03-13T07:49:00.233Z,1018.84
2019-03-13T07:49:40.902Z,1018.89
2019-03-13T07:50:21.484Z,1018.91
2019-03-13T07:51:02.103Z,1018.95
2019-03-13T07:51:42.764Z,1018.97
2019-03-13T07:52:23.357Z,1018.93
2019-03-13T07:53:03.942Z,1018.92
2019-03-13T07:53:44.589Z,1018.91
2019-03-13T07:54:25.212Z,1018.88
2019-03-13T07:55:05.821Z,1018.92
2019-03-13T07:55:46.480Z,1018.87
2019-03-13T07:56:27.020Z,1018.88
2019-03-13T07:57:07.643Z,1018.93
2019-03-13T07:57:48.258Z,1018.91
2019-03-13T07:58:28.847Z,1018.94
2019-03-13T07:59:09.433Z,1018.94
2019-03-13T07:59:50.014Z,1019
2019-03-13T08:00:30.600Z,1018.99
2019-03-13T08:01:11.220Z,1019.01
2019-03-13T08:01:51.790Z,1019.05
2019-03-13T08:02:32.475Z,1019.07
2019-03-13T08:03:13.025Z,1019.05
2019-03-13T08:03:53.640Z,1019.04
2019-03-13T08:04:34.275Z,1019.06
2019-03-13T08:05:14.908Z,1019.06
2019-03-13T08:05:55.500Z,1019.1
2019-03-13T08:06:36.111Z,1019.07
2019-03-13T08:07:16.698Z,1019.08
2019-03-13T08:07:57.374Z,1019.14
2019-03-13T08:08:38.042Z,1019.07
2019-03-13T08:09:18.654Z,1019.11
2019-03-13T08:09:59.282Z,1019.19
2019-03-13T08:10:39.972Z,1019.24
2019-03-13T08:11:20.576Z,1019.25
2019-03-13T08:12:01.203Z,1019.27
2019-03-13T08:12:41.834Z,1019.31
2019-03-13T08:13:22.452Z,1019.28
2019-03-13T08:14:03.057Z,1019.32